Time;durP1;ratioP1;P1;durP2;ratioP2;P2;SDS_P1;SDS_P2;PMS_P1;PMS_P2;Temp;Humidity;BMP_temperature;BMP_pressure;BME280_temperature;BME280_humidity;BME280_pressure;Samples;Min_cycle;Max_cycle;Signal;HPM_P1;HPM_P2
2022/10/18 00:19:56;;;;;;;;;;;;;;;;;;;;;
2022/10/18 00:23:19;;;;;;;;;;;;;;;;;;;;;
2022/10/18 00:43:32;;;;;;;16.77;12.70;;;16.70;1.00;;;;;;6225950;23;20380;-89
2022/10/18 00:46:47;;;;;;;15.90;13.03;;;16.60;1.00;;;;;;6243808;23;20850;-89
2022/10/18 01:03:28;;;;;;;19.90;12.43;;;16.60;1.00;;;;;;6244067;23;20718;-89
2022/10/18 01:06:40;;;;;;;;;;;;;;;;;;;;;
2022/10/18 01:16:36;;;;;;;19.43;14.07;;;16.50;1.00;;;;;;6222340;23;20929;-89
2022/10/18 01:27:22;;;;;;;;;;;;;;;;;;;;;
2022/10/18 01:33:13;;;;;;;;;;;;;;;;;;;;;
2022/10/18 01:39:37;;;;;;;;;;;;;;;;;;;;;
2022/10/18 02:19:48;;;;;;;;;;;;;;;;;;;;;
2022/10/18 02:33:13;;;;;;;;;;;;;;;;;;;;;
2022/10/18 02:49:37;;;;;;;24.83;15.17;;;16.80;1.00;;;;;;6130372;23;20400;-89
2022/10/18 03:03:07;;;;;;;;;;;;;;;;;;;;;
2022/10/18 03:13:30;;;;;;;;;;;;;;;;;;;;;
2022/10/18 03:19:43;;;;;;;23.73;17.93;;;16.80;1.00;;;;;;6173889;22;20450;-89
2022/10/18 03:22:41;;;;;;;;;;;;;;;;;;;;;
2022/10/18 03:25:50;;;;;;;23.37;17.77;;;16.90;1.00;;;;;;6236548;23;20480;-88
2022/10/18 03:29:04;;;;;;;22.53;15.60;;;16.90;1.00;;;;;;6241429;23;20395;-88
2022/10/18 03:35:17;;;;;;;;;;;;;;;;;;;;;
2022/10/18 04:39:45;;;;;;;;;;;;;;;;;;;;;
2022/10/18 04:57:09;;;;;;;40.80;28.00;;;16.70;1.00;;;;;;6237442;23;20400;-89
2022/10/18 05:07:05;;;;;;;;;;;;;;;;;;;;;
2022/10/18 05:13:56;;;;;;;34.10;22.20;;;16.70;1.00;;;;;;6054151;23;20450;-89
2022/10/18 05:17:15;;;;;;;;;;;;;;;;;;;;;
2022/10/18 05:34:00;;;;;;;34.60;24.27;;;16.80;1.00;;;;;;6125278;23;21071;-89
2022/10/18 05:46:54;;;;;;;;;;;;;;;;;;;;;
2022/10/18 05:53:08;;;;;;;38.03;26.93;;;16.90;1.00;;;;;;6229498;23;20511;-89
2022/10/18 06:03:10;;;;;;;40.83;29.30;;;16.90;1.00;;;;;;6209100;23;20388;-89
2022/10/18 07:15:59;;;;;;;75.17;41.77;;;17.10;1.00;;;;;;6224154;23;20382;-85
2022/10/18 07:22:36;;;;;;;;;;;;;;;;;;;;;
2022/10/18 07:25:22;;;;;;;80.57;40.90;;;17.50;1.00;;;;;;6240119;23;20482;-85
2022/10/18 07:28:36;;;;;;;84.53;43.60;;;17.60;1.00;;;;;;6216948;23;20387;-85
2022/10/18 07:34:12;;;;;;;80.03;42.07;;;17.70;1.00;;;;;;6230044;23;20385;-86
2022/10/18 07:36:37;;;;;;;73.23;40.57;;;17.70;1.00;;;;;;6244458;23;20372;-85
2022/10/18 07:39:04;;;;;;;64.63;38.20;;;17.70;1.00;;;;;;6245874;22;20437;-85
2022/10/18 07:41:32;;;;;;;70.73;38.40;;;17.80;1.00;;;;;;6248917;23;20288;-84
2022/10/18 07:43:57;;;;;;;70.20;39.50;;;17.90;1.00;;;;;;6253408;23;20412;-84
2022/10/18 07:46:23;;;;;;;75.80;43.23;;;17.90;1.00;;;;;;6253722;23;20380;-84
2022/10/18 07:48:50;;;;;;;81.87;44.47;;;17.90;1.00;;;;;;6252007;22;20173;-84
2022/10/18 07:51:17;;;;;;;79.30;43.63;;;17.90;1.00;;;;;;6226696;23;20241;-84
2022/10/18 07:53:42;;;;;;;71.53;39.27;;;17.90;1.00;;;;;;6224148;23;20431;-84
2022/10/18 07:56:14;;;;;;;79.43;40.97;;;17.90;1.00;;;;;;6251175;23;20850;-84
2022/10/18 07:58:40;;;;;;;78.03;39.57;;;17.80;1.00;;;;;;6246602;22;20130;-84
2022/10/18 08:01:07;;;;;;;86.27;44.20;;;17.80;1.00;;;;;;6250713;23;20376;-84
2022/10/18 08:03:33;;;;;;;78.23;40.33;;;17.80;1.00;;;;;;6247673;23;20476;-84
2022/10/18 08:05:59;;;;;;;76.63;42.07;;;17.80;1.00;;;;;;6249572;23;20762;-84
2022/10/18 08:08:26;;;;;;;82.00;41.97;;;17.80;1.00;;;;;;6249130;23;20392;-84
2022/10/18 08:10:51;;;;;;;86.30;43.47;;;17.80;1.00;;;;;;6223646;23;20381;-84
2022/10/18 08:13:17;;;;;;;85.43;41.93;;;17.80;1.00;;;;;;6249369;23;20424;-84
2022/10/18 08:15:43;;;;;;;80.73;40.37;;;17.80;1.00;;;;;;6250291;23;20176;-84
2022/10/18 08:18:09;;;;;;;74.60;40.50;;;17.90;1.00;;;;;;6248920;23;20175;-84
2022/10/18 08:20:35;;;;;;;89.00;44.77;;;18.10;1.00;;;;;;6247105;22;20392;-84
2022/10/18 08:23:01;;;;;;;89.70;46.87;;;18.30;1.00;;;;;;6244876;23;20378;-84
2022/10/18 08:25:28;;;;;;;83.27;47.80;;;18.50;1.00;;;;;;6229106;23;20883;-84
2022/10/18 08:27:53;;;;;;;80.70;45.23;;;18.60;1.00;;;;;;6259740;23;20391;-84
2022/10/18 08:30:22;;;;;;;75.63;42.97;;;18.70;1.00;;;;;;6255055;22;20431;-85
2022/10/18 08:32:48;;;;;;;77.70;41.87;;;18.70;1.00;;;;;;6244113;23;20182;-85
2022/10/18 08:35:13;;;;;;;71.70;42.87;;;18.80;1.00;;;;;;6244851;23;20428;-84
2022/10/18 08:37:39;;;;;;;72.70;43.23;;;18.80;1.00;;;;;;6244778;23;20226;-84
2022/10/18 08:40:05;;;;;;;70.00;40.20;;;18.90;1.00;;;;;;6243352;22;20172;-84
2022/10/18 08:42:56;;;;;;;80.47;45.63;;;19.00;1.00;;;;;;6218492;23;20908;-84
2022/10/18 08:45:23;;;;;;;61.93;36.63;;;19.10;1.00;;;;;;6241844;23;20396;-84
2022/10/18 08:47:52;;;;;;;60.57;37.40;;;19.30;1.00;;;;;;6245125;23;20785;-84
2022/10/18 08:50:22;;;;;;;54.47;33.47;;;19.40;1.00;;;;;;6242104;22;20394;-84
2022/10/18 08:53:15;;;;;;;52.00;34.60;;;19.60;99.90;;;;;;6243604;23;20439;-84
2022/10/18 08:56:05;;;;;;;56.97;32.97;;;20.10;99.90;;;;;;6244455;23;20364;-84
2022/10/18 08:58:32;;;;;;;60.10;33.93;;;20.40;99.90;;;;;;6241027;22;20352;-84
2022/10/18 09:01:38;;;;;;;54.13;34.07;;;20.50;34.10;;;;;;6240676;23;20457;-84
2022/10/18 09:04:37;;;;;;;57.13;34.27;;;20.60;1.00;;;;;;6216859;23;20644;-84
2022/10/18 09:07:33;;;;;;;54.73;32.90;;;20.40;1.00;;;;;;6245439;23;20364;-84
2022/10/18 09:10:07;;;;;;;51.50;33.03;;;20.30;1.00;;;;;;6246980;22;20408;-84
2022/10/18 09:12:59;;;;;;;53.60;31.93;;;20.30;1.00;;;;;;6246488;23;20392;-85
2022/10/18 09:15:29;;;;;;;61.23;35.83;;;20.40;99.90;;;;;;6246295;23;20385;-85
2022/10/18 09:18:17;;;;;;;56.53;35.03;;;20.40;99.90;;;;;;6246110;23;20352;-85
2022/10/18 09:20:58;;;;;;;64.20;38.13;;;20.40;99.90;;;;;;6218589;23;20443;-85
2022/10/18 09:24:07;;;;;;;67.07;38.80;;;20.40;99.90;;;;;;6245799;23;20496;-84
2022/10/18 09:26:44;;;;;;;76.50;43.37;;;20.20;99.90;;;;;;6174621;23;20844;-84
2022/10/18 09:29:38;;;;;;;78.77;43.50;;;20.10;99.90;;;;;;6246270;22;20748;-84
2022/10/18 09:32:16;;;;;;;75.87;41.90;;;20.00;1.00;;;;;;6190993;23;20387;-85
2022/10/18 09:34:50;;;;;;;62.93;37.63;;;20.00;1.00;;;;;;6217177;23;20374;-85
2022/10/18 09:37:18;;;;;;;59.03;35.53;;;20.00;1.00;;;;;;6244508;23;20679;-84
2022/10/18 09:39:45;;;;;;;52.93;33.40;;;20.00;1.00;;;;;;6217933;23;20422;-85
2022/10/18 09:42:14;;;;;;;55.23;34.07;;;19.90;1.00;;;;;;6244867;23;20907;-84
2022/10/18 09:44:54;;;;;;;55.83;33.97;;;19.90;1.00;;;;;;6244835;23;20414;-84
2022/10/18 09:47:25;;;;;;;58.07;34.80;;;19.80;1.00;;;;;;6245752;23;20442;-85
2022/10/18 09:49:59;;;;;;;58.07;34.83;;;19.70;1.00;;;;;;6245282;22;20399;-85
2022/10/18 09:52:36;;;;;;;62.33;34.83;;;19.40;1.00;;;;;;6218124;23;20390;-84
2022/10/18 09:55:15;;;;;;;62.50;36.67;;;19.20;90.30;;;;;;6244943;23;20897;-84
2022/10/18 09:57:45;;;;;;;62.30;32.97;;;19.00;99.90;;;;;;6243528;23;20846;-84
2022/10/18 10:00:33;;;;;;;74.73;40.67;;;18.80;99.90;;;;;;6218294;23;20419;-84
2022/10/18 10:03:00;;;;;;;60.80;32.87;;;18.70;99.90;;;;;;6245742;23;20405;-84
2022/10/18 10:05:26;;;;;;;78.90;41.17;;;18.60;99.90;;;;;;6246634;23;20375;-85
2022/10/18 10:07:58;;;;;;;76.03;38.00;;;18.60;99.90;;;;;;6245280;23;20406;-84
2022/10/18 10:10:26;;;;;;;58.70;33.27;;;18.60;99.90;;;;;;6244828;22;20394;-85
2022/10/18 10:13:16;;;;;;;62.13;32.83;;;18.60;99.90;;;;;;6243856;23;20442;-85
2022/10/18 10:15:51;;;;;;;51.33;32.70;;;18.70;99.90;;;;;;6244024;23;20485;-85
2022/10/18 10:18:35;;;;;;;54.07;31.13;;;18.80;99.90;;;;;;6243818;23;20364;-85
2022/10/18 10:21:05;;;;;;;69.07;35.27;;;18.90;99.90;;;;;;6217917;23;20367;-85
2022/10/18 10:24:03;;;;;;;59.00;35.13;;;19.00;99.90;;;;;;6244217;23;20420;-85
2022/10/18 10:26:33;;;;;;;55.43;34.80;;;19.10;99.90;;;;;;6177273;23;20471;-85
2022/10/18 10:28:59;;;;;;;61.23;35.07;;;19.20;99.90;;;;;;6217276;23;20470;-85
2022/10/18 10:31:30;;;;;;;59.00;34.97;;;19.20;99.90;;;;;;6217740;23;20756;-84
2022/10/18 10:34:14;;;;;;;60.07;33.50;;;19.20;99.90;;;;;;6244372;23;20390;-85
2022/10/18 10:37:25;;;;;;;55.80;34.03;;;19.20;99.90;;;;;;6244855;23;20381;-85
2022/10/18 10:40:20;;;;;;;58.23;33.30;;;19.10;99.90;;;;;;6189256;23;20741;-85
2022/10/18 10:43:17;;;;;;;50.47;31.27;;;19.00;99.90;;;;;;6245210;23;20423;-85
2022/10/18 10:46:10;;;;;;;58.43;33.70;;;19.00;99.90;;;;;;6245243;23;20696;-85
2022/10/18 10:48:56;;;;;;;54.27;34.50;;;19.00;99.90;;;;;;6247152;22;20411;-85
2022/10/18 10:51:37;;;;;;;59.13;33.93;;;19.10;99.90;;;;;;6217866;23;20378;-85
2022/10/18 10:54:12;;;;;;;53.37;32.20;;;19.20;99.90;;;;;;6217717;23;20836;-85
2022/10/18 10:56:59;;;;;;;52.07;32.63;;;19.20;99.90;;;;;;6245095;23;20375;-85
2022/10/18 10:59:27;;;;;;;51.37;32.30;;;19.30;23.60;;;;;;6244695;22;20399;-85
2022/10/18 11:02:14;;;;;;;52.37;29.10;;;19.30;12.20;;;;;;6245222;23;20419;-85
2022/10/18 11:04:41;;;;;;;45.10;27.80;;;19.30;1.00;;;;;;6218516;23;21401;-85
2022/10/18 11:07:25;;;;;;;49.23;27.57;;;19.50;1.00;;;;;;6243978;23;20426;-85
2022/10/18 11:10:11;;;;;;;43.10;25.77;;;19.60;1.00;;;;;;6244905;22;20434;-85
2022/10/18 11:13:01;;;;;;;40.73;27.10;;;19.80;99.90;;;;;;6218729;23;20440;-85
2022/10/18 11:15:37;;;;;;;37.77;25.90;;;20.00;3.70;;;;;;6244236;23;20363;-86
2022/10/18 11:18:13;;;;;;;38.30;25.60;;;20.10;99.90;;;;;;6243735;23;20366;-85
2022/10/18 11:20:50;;;;;;;36.87;25.70;;;20.20;8.40;;;;;;6243477;22;20396;-85
2022/10/18 11:23:17;;;;;;;37.93;24.93;;;20.40;99.90;;;;;;6243371;23;20407;-85
2022/10/18 11:26:06;;;;;;;36.70;23.40;;;20.50;99.90;;;;;;6244602;23;20420;-85
2022/10/18 11:28:56;;;;;;;37.23;22.43;;;20.70;99.90;;;;;;6245622;22;20367;-85
2022/10/18 11:31:43;;;;;;;32.70;23.80;;;20.80;1.00;;;;;;6245429;23;20435;-85
2022/10/18 11:34:47;;;;;;;31.03;22.40;;;21.00;99.90;;;;;;6244471;23;20367;-85
2022/10/18 11:37:45;;;;;;;26.63;18.07;;;21.20;1.00;;;;;;6227740;23;20878;-85
2022/10/18 11:40:32;;;;;;;23.10;16.70;;;22.00;99.90;;;;;;6242172;22;20409;-85
2022/10/18 11:43:32;;;;;;;21.80;16.30;;;23.20;1.00;;;;;;6243314;23;20920;-85
2022/10/18 11:46:00;;;;;;;20.50;16.03;;;23.80;1.00;;;;;;6242778;23;20767;-85
2022/10/18 11:48:31;;;;;;;24.67;18.60;;;23.90;1.00;;;;;;6244141;23;20380;-85
2022/10/18 11:51:35;;;;;;;29.97;17.83;;;24.00;1.00;;;;;;6243144;23;20360;-86
2022/10/18 11:54:08;;;;;;;22.07;16.47;;;24.90;1.00;;;;;;6242784;23;20379;-86
2022/10/18 11:56:41;;;;;;;22.67;16.70;;;25.90;99.90;;;;;;6241431;23;20358;-86
2022/10/18 11:59:31;;;;;;;21.47;15.43;;;26.80;99.90;;;;;;6245100;22;20474;-85
2022/10/18 12:01:59;;;;;;;20.87;16.60;;;27.20;99.90;;;;;;6217989;23;20837;-85
2022/10/18 12:04:35;;;;;;;20.40;16.40;;;27.20;99.90;;;;;;6247678;23;20459;-86
2022/10/18 12:07:04;;;;;;;20.87;16.87;;;26.80;99.90;;;;;;6242296;23;20360;-85
2022/10/18 12:09:42;;;;;;;22.40;15.73;;;26.60;99.90;;;;;;6242864;22;20430;-86
2022/10/18 12:12:28;;;;;;;18.70;15.60;;;27.00;99.90;;;;;;6243355;23;20411;-86
2022/10/18 12:14:58;;;;;;;17.93;16.00;;;26.70;99.90;;;;;;6243673;23;20368;-86
2022/10/18 12:17:29;;;;;;;18.40;14.50;;;27.50;99.90;;;;;;6217696;23;20379;-86
2022/10/18 12:19:58;;;;;;;17.93;13.50;;;28.50;99.90;;;;;;6244095;22;20461;-86
2022/10/18 12:22:40;;;;;;;15.90;11.70;;;29.40;99.90;;;;;;6217668;23;20474;-86
2022/10/18 12:25:12;;;;;;;15.60;11.10;;;30.20;99.90;;;;;;6244941;23;20376;-86
2022/10/18 12:27:50;;;;;;;19.73;13.50;;;30.60;99.90;;;;;;6244384;23;20709;-86
2022/10/18 12:30:53;;;;;;;21.50;13.50;;;30.00;99.90;;;;;;6244386;22;20396;-86
2022/10/18 12:33:25;;;;;;;18.93;12.57;;;29.20;99.90;;;;;;6243026;23;20360;-86
2022/10/18 12:36:21;;;;;;;24.00;15.87;;;28.20;99.90;;;;;;6244318;23;20852;-85
2022/10/18 12:38:55;;;;;;;19.80;14.93;;;27.30;99.90;;;;;;6216941;22;20383;-85
2022/10/18 12:41:26;;;;;;;20.40;15.60;;;26.60;99.90;;;;;;6244459;23;20912;-85
2022/10/18 12:43:58;;;;;;;22.73;16.70;;;25.90;99.90;;;;;;6243084;23;20415;-85
2022/10/18 12:46:23;;;;;;;22.23;15.23;;;25.20;99.90;;;;;;6243578;23;20408;-85
2022/10/18 12:49:10;;;;;;;18.43;13.63;;;25.60;99.90;;;;;;6242492;22;20388;-86
2022/10/18 12:51:58;;;;;;;16.20;11.90;;;26.50;99.90;;;;;;6244056;23;20198;-86
2022/10/18 12:54:33;;;;;;;19.17;11.00;;;27.50;99.90;;;;;;6217004;23;20415;-86
2022/10/18 12:57:00;;;;;;;14.00;11.10;;;28.20;99.90;;;;;;6244156;23;20717;-86
2022/10/18 12:59:26;;;;;;;21.00;12.83;;;27.80;99.90;;;;;;6244041;22;20427;-85
2022/10/18 13:01:51;;;;;;;22.50;13.47;;;27.20;99.90;;;;;;6216778;23;20376;-85
2022/10/18 13:04:26;;;;;;;19.40;13.97;;;26.50;99.90;;;;;;6217546;23;20167;-86
2022/10/18 13:07:03;;;;;;;17.37;13.70;;;25.80;99.90;;;;;;6242685;23;20227;-86
2022/10/18 13:09:37;;;;;;;23.60;14.70;;;25.40;99.90;;;;;;6242612;22;20422;-86
2022/10/18 13:12:09;;;;;;;20.33;14.33;;;25.00;99.90;;;;;;6243413;23;20401;-85
2022/10/18 13:15:09;;;;;;;29.53;16.07;;;24.50;99.90;;;;;;6244810;23;20455;-85
2022/10/18 13:17:51;;;;;;;23.87;17.00;;;24.00;99.90;;;;;;6243375;23;20390;-86
2022/10/18 13:20:25;;;;;;;23.83;16.50;;;23.80;99.90;;;;;;6244282;22;20419;-85
2022/10/18 13:23:27;;;;;;;25.43;14.27;;;23.80;99.90;;;;;;6244686;23;20404;-86
2022/10/18 13:26:26;;;;;;;22.80;14.63;;;24.40;99.90;;;;;;6244298;23;20360;-86
2022/10/18 13:29:19;;;;;;;21.27;12.33;;;24.80;99.90;;;;;;6246850;22;20394;-86
2022/10/18 13:31:56;;;;;;;20.03;13.23;;;24.70;99.90;;;;;;6244434;23;20359;-85
2022/10/18 13:34:23;;;;;;;21.70;12.00;;;24.50;99.90;;;;;;6245155;23;20456;-85
2022/10/18 13:36:58;;;;;;;20.93;11.10;;;24.80;99.90;;;;;;6244173;23;20379;-85
2022/10/18 13:39:24;;;;;;;20.03;11.30;;;25.00;99.90;;;;;;6217666;23;20920;-86
2022/10/18 13:41:50;;;;;;;20.13;10.20;;;25.30;99.90;;;;;;6244323;23;20391;-85
2022/10/18 13:44:36;;;;;;;15.50;10.20;;;25.50;99.90;;;;;;6217433;23;20451;-86
2022/10/18 13:47:02;;;;;;;18.40;10.13;;;25.30;99.90;;;;;;6243984;23;20475;-86
2022/10/18 13:49:38;;;;;;;14.10;10.20;;;24.90;99.90;;;;;;6244893;22;20478;-85
2022/10/18 13:52:25;;;;;;;21.00;10.77;;;24.90;99.90;;;;;;6218781;23;20496;-85
2022/10/18 13:55:19;;;;;;;20.00;9.57;;;25.00;99.90;;;;;;6219054;23;20371;-85
2022/10/18 13:58:03;;;;;;;15.70;7.57;;;25.10;99.90;;;;;;6245044;23;20833;-85
2022/10/18 14:01:00;;;;;;;17.43;8.07;;;25.30;99.90;;;;;;6246034;22;20398;-86
2022/10/18 14:03:36;;;;;;;14.13;7.30;;;25.50;99.90;;;;;;6246056;23;20873;-86
2022/10/18 14:06:18;;;;;;;13.43;7.07;;;25.60;99.90;;;;;;6218958;23;20462;-85
2022/10/18 14:09:04;;;;;;;14.47;6.07;;;25.60;99.90;;;;;;6246245;22;20767;-86
2022/10/18 14:11:52;;;;;;;12.30;7.10;;;25.60;99.90;;;;;;6246576;23;20368;-86
2022/10/18 14:14:32;;;;;;;17.03;6.30;;;25.50;99.90;;;;;;6245474;23;20438;-85
2022/10/18 14:17:10;;;;;;;12.03;5.70;;;25.50;99.90;;;;;;6246046;23;20360;-86
2022/10/18 14:19:43;;;;;;;12.07;5.90;;;25.50;99.90;;;;;;6218841;23;20414;-86
2022/10/18 14:22:15;;;;;;;11.27;5.40;;;25.40;99.90;;;;;;6245631;23;20370;-85
2022/10/18 14:24:45;;;;;;;11.20;5.53;;;25.40;99.90;;;;;;6218170;23;20416;-85
2022/10/18 14:27:19;;;;;;;9.53;5.67;;;25.40;99.90;;;;;;6246231;23;20462;-84
2022/10/18 14:29:49;;;;;;;13.43;5.57;;;25.40;99.90;;;;;;6244899;22;20730;-85
2022/10/18 14:32:29;;;;;;;13.23;5.80;;;25.50;99.90;;;;;;6243566;23;20433;-85
2022/10/18 14:34:55;;;;;;;12.30;5.47;;;25.60;99.90;;;;;;6242250;23;20383;-85
2022/10/18 14:37:32;;;;;;;18.13;6.27;;;25.60;99.90;;;;;;6216918;23;20406;-85
2022/10/18 14:39:58;;;;;;;14.97;7.00;;;25.80;99.90;;;;;;6242011;22;20433;-85
2022/10/18 14:42:26;;;;;;;11.00;6.33;;;25.90;99.90;;;;;;6243235;23;20423;-85
2022/10/18 14:44:52;;;;;;;11.67;6.87;;;25.80;99.90;;;;;;6243441;23;20227;-85
2022/10/18 14:47:22;;;;;;;12.30;7.13;;;25.70;99.90;;;;;;6242965;23;20437;-85
2022/10/18 14:49:57;;;;;;;12.53;7.00;;;25.50;99.90;;;;;;6242925;22;20772;-85
2022/10/18 14:52:32;;;;;;;11.13;5.90;;;25.40;99.90;;;;;;6243299;23;20359;-85
2022/10/18 14:54:59;;;;;;;11.83;7.10;;;25.30;99.90;;;;;;6242580;23;20356;-84
2022/10/18 14:57:29;;;;;;;18.13;7.43;;;25.30;99.90;;;;;;6244326;23;20414;-85
2022/10/18 15:00:01;;;;;;;16.20;7.47;;;25.30;99.90;;;;;;6244993;22;20392;-85
2022/10/18 15:02:30;;;;;;;15.27;7.30;;;25.30;99.90;;;;;;6242922;23;20411;-85
2022/10/18 15:05:09;;;;;;;10.60;6.30;;;25.20;99.90;;;;;;6245951;23;20695;-84
2022/10/18 15:07:35;;;;;;;11.30;6.90;;;25.20;99.90;;;;;;6218546;23;20395;-85
2022/10/18 15:10:02;;;;;;;14.93;7.57;;;25.10;99.90;;;;;;6245917;22;20400;-84
2022/10/18 15:12:31;;;;;;;13.50;7.93;;;24.90;99.90;;;;;;6217256;23;20375;-85
2022/10/18 15:14:59;;;;;;;17.50;6.80;;;24.90;99.90;;;;;;6244503;23;20380;-85
2022/10/18 15:17:27;;;;;;;18.80;8.60;;;24.80;99.90;;;;;;6220754;23;20431;-85
2022/10/18 15:20:03;;;;;;;9.83;6.60;;;24.60;99.90;;;;;;6246468;22;20396;-85
2022/10/18 15:22:30;;;;;;;12.80;7.27;;;24.50;99.90;;;;;;6245537;23;20411;-85
2022/10/18 15:25:09;;;;;;;13.97;7.87;;;24.30;99.90;;;;;;6245358;23;20719;-85
2022/10/18 15:27:38;;;;;;;15.10;6.53;;;24.20;99.90;;;;;;6218897;23;20380;-85
2022/10/18 15:30:13;;;;;;;14.37;6.43;;;23.90;99.90;;;;;;6233828;23;20396;-85
2022/10/18 15:32:50;;;;;;;12.37;6.50;;;23.60;99.90;;;;;;6261117;23;20358;-85
2022/10/18 15:35:21;;;;;;;13.20;7.00;;;23.40;99.90;;;;;;6243770;23;20751;-85
2022/10/18 15:37:47;;;;;;;13.73;7.10;;;23.20;99.90;;;;;;6241237;23;20403;-85
2022/10/18 15:40:21;;;;;;;16.23;7.23;;;23.00;99.90;;;;;;6244328;22;20468;-85
2022/10/18 15:42:55;;;;;;;13.50;6.53;;;22.80;99.90;;;;;;6244482;23;20418;-86
2022/10/18 15:45:23;;;;;;;11.70;6.67;;;22.60;99.90;;;;;;6243385;23;20442;-85
2022/10/18 15:48:04;;;;;;;16.97;7.90;;;22.40;99.90;;;;;;6243911;23;20370;-85
2022/10/18 15:51:03;;;;;;;18.17;7.50;;;22.20;99.90;;;;;;6213359;23;20404;-86
2022/10/18 15:53:49;;;;;;;11.20;6.93;;;22.10;99.90;;;;;;6237752;23;20412;-85
2022/10/18 15:56:26;;;;;;;11.43;6.63;;;21.90;99.90;;;;;;6243064;23;20368;-84
2022/10/18 15:58:55;;;;;;;14.30;7.80;;;21.70;99.90;;;;;;6216651;22;20412;-84
2022/10/18 16:01:35;;;;;;;15.57;7.33;;;21.50;99.90;;;;;;6243956;23;20400;-84
2022/10/18 16:04:17;;;;;;;16.53;7.63;;;21.40;99.90;;;;;;6216588;23;20921;-85
2022/10/18 16:06:43;;;;;;;17.00;8.10;;;21.20;99.90;;;;;;6243712;23;20354;-85
2022/10/18 16:09:15;;;;;;;15.63;7.73;;;21.10;99.90;;;;;;6244650;22;20490;-85
2022/10/18 16:11:41;;;;;;;19.40;9.50;;;20.90;99.90;;;;;;6217991;23;20433;-85
2022/10/18 16:14:06;;;;;;;14.93;8.83;;;20.70;99.90;;;;;;6245401;23;20382;-85
2022/10/18 16:16:32;;;;;;;15.73;8.63;;;20.50;99.90;;;;;;6243716;23;20737;-85
2022/10/18 16:18:57;;;;;;;17.60;7.93;;;20.30;99.90;;;;;;6244596;22;20864;-84
2022/10/18 16:21:32;;;;;;;25.23;15.80;;;20.10;99.90;;;;;;6244405;23;20164;-85
2022/10/18 16:23:58;;;;;;;15.63;9.70;;;20.00;99.90;;;;;;6243204;23;20172;-85
2022/10/18 16:26:24;;;;;;;15.30;8.53;;;19.90;1.00;;;;;;6216617;23;20387;-85
2022/10/18 16:28:51;;;;;;;19.63;10.40;;;19.80;1.00;;;;;;6215627;22;20432;-85
2022/10/18 16:31:25;;;;;;;17.37;9.57;;;19.70;1.00;;;;;;6216602;23;20718;-86
2022/10/18 16:33:52;;;;;;;16.50;8.63;;;19.60;1.00;;;;;;6241281;23;20377;-85
2022/10/18 16:36:21;;;;;;;15.00;9.60;;;19.40;1.00;;;;;;6242568;23;20427;-85
2022/10/18 16:38:47;;;;;;;15.77;10.27;;;19.40;1.00;;;;;;6218207;22;20395;-84
2022/10/18 16:41:14;;;;;;;19.93;8.23;;;19.30;1.00;;;;;;6245045;23;20874;-84
2022/10/18 16:43:41;;;;;;;19.27;9.63;;;19.20;31.00;;;;;;6218590;23;20441;-84
2022/10/18 16:46:13;;;;;;;18.63;9.90;;;19.00;99.90;;;;;;6243983;23;20426;-84
2022/10/18 16:48:39;;;;;;;16.23;9.50;;;18.80;99.90;;;;;;6245737;22;20360;-84
2022/10/18 16:51:04;;;;;;;15.63;8.20;;;18.70;99.90;;;;;;6217195;23;20386;-85
2022/10/18 16:53:30;;;;;;;16.83;10.60;;;18.60;99.90;;;;;;6218965;23;20229;-85
2022/10/18 16:55:58;;;;;;;17.20;9.83;;;18.50;99.90;;;;;;6242374;23;20172;-85
2022/10/18 16:58:26;;;;;;;27.17;10.63;;;18.50;1.00;;;;;;6216371;23;20418;-85
2022/10/18 17:00:54;;;;;;;23.57;10.30;;;18.40;1.00;;;;;;6241680;22;21165;-88
2022/10/18 17:03:25;;;;;;;20.10;9.40;;;18.30;1.00;;;;;;6243734;23;20977;-89
2022/10/18 17:05:55;;;;;;;20.67;10.03;;;18.30;1.00;;;;;;6243952;23;20697;-90
2022/10/18 17:08:29;;;;;;;17.47;9.40;;;18.30;57.10;;;;;;6243257;23;20404;-90
2022/10/18 17:10:57;;;;;;;19.73;10.60;;;18.20;99.90;;;;;;6243151;23;20359;-88
2022/10/18 17:13:26;;;;;;;15.23;8.90;;;18.10;99.90;;;;;;6243438;23;20374;-89
2022/10/18 17:16:04;;;;;;;;;;;;;;;;;;;;;
2022/10/18 17:18:49;;;;;;;22.73;10.83;;;18.00;99.90;;;;;;6241726;22;20857;-89
2022/10/18 17:28:37;;;;;;;16.87;9.40;;;17.70;1.00;;;;;;6214610;23;20435;-88
2022/10/18 17:31:46;;;;;;;14.90;10.73;;;17.60;1.00;;;;;;6208032;23;20391;-88
2022/10/18 17:34:52;;;;;;;19.93;10.80;;;17.50;13.60;;;;;;6229103;23;20486;-88
2022/10/18 17:38:16;;;;;;;18.50;11.47;;;17.40;38.00;;;;;;6244744;23;20379;-89
2022/10/18 17:44:11;;;;;;;19.00;10.47;;;17.20;1.00;;;;;;6195263;23;20449;-89
2022/10/18 17:46:36;;;;;;;23.93;10.43;;;17.10;1.00;;;;;;6246747;23;20849;-87
2022/10/18 17:49:09;;;;;;;19.00;9.50;;;17.00;1.00;;;;;;6246030;22;20667;-87
2022/10/18 17:51:39;;;;;;;15.57;9.30;;;17.00;61.20;;;;;;6219096;23;20612;-86
2022/10/18 17:54:19;;;;;;;16.77;10.83;;;16.90;64.50;;;;;;6243856;23;20414;-87
2022/10/18 17:56:53;;;;;;;19.50;10.73;;;16.90;99.30;;;;;;6246274;23;20367;-88
2022/10/18 18:05:53;;;;;;;16.70;9.80;;;16.70;99.90;;;;;;6219747;23;20375;-88
2022/10/18 18:08:48;;;;;;;19.40;11.00;;;16.60;99.90;;;;;;6247144;23;20461;-86
2022/10/18 18:11:52;;;;;;;;;;;;;;;;;;;;;
2022/10/18 18:18:05;;;;;;;;;;;;;;;;;;;;;
2022/10/18 18:21:35;;;;;;;;;;;;;;;;;;;;;
2022/10/18 18:24:16;;;;;;;17.63;10.00;;;16.20;1.00;;;;;;6237608;23;20432;-88
2022/10/18 18:30:38;;;;;;;;;;;;;;;;;;;;;
2022/10/18 18:39:59;;;;;;;14.50;10.10;;;15.90;99.90;;;;;;6225902;22;20404;-88
2022/10/18 18:49:46;;;;;;;21.77;10.27;;;15.70;1.00;;;;;;6154292;23;20404;-88
2022/10/18 18:52:29;;;;;;;;;;;;;;;;;;;;;
2022/10/18 19:02:36;;;;;;;16.80;10.80;;;15.40;1.00;;;;;;6242181;23;20384;-87
2022/10/18 19:18:40;;;;;;;;;;;;;;;;;;;;;
2022/10/18 19:21:37;;;;;;;17.10;9.17;;;15.10;4.00;;;;;;6246395;23;21205;-87
2022/10/18 19:27:59;;;;;;;;;;;;;;;;;;;;;
2022/10/18 19:40:54;;;;;;;17.20;8.30;;;14.80;1.00;;;;;;6201937;22;20411;-88
2022/10/18 19:43:22;;;;;;;13.73;9.53;;;14.70;1.00;;;;;;6246344;23;20446;-88
2022/10/18 19:45:50;;;;;;;16.03;9.13;;;14.70;99.90;;;;;;6221129;23;20395;-88
2022/10/18 19:48:25;;;;;;;16.03;9.03;;;14.70;1.00;;;;;;6249881;23;20376;-88
2022/10/18 19:51:01;;;;;;;;;;;;;;;;;;;;;
2022/10/18 20:07:28;;;;;;;;;;;;;;;;;;;;;
2022/10/18 20:13:22;;;;;;;;;;;;;;;;;;;;;
2022/10/18 20:23:04;;;;;;;13.67;8.47;;;14.10;1.00;;;;;;6232423;23;20470;-87
2022/10/18 20:26:26;;;;;;;;;;;;;;;;;;;;;
2022/10/18 20:28:59;;;;;;;15.33;7.60;;;14.00;3.40;;;;;;6248561;22;20475;-88
2022/10/18 20:39:39;;;;;;;;;;;;;;;;;;;;;
2022/10/18 20:52:43;;;;;;;8.20;6.60;;;13.70;1.00;;;;;;6220531;23;20378;-88
2022/10/18 20:55:55;;;;;;;16.73;6.90;;;13.60;1.00;;;;;;6246593;23;20404;-88
2022/10/18 21:02:26;;;;;;;;;;;;;;;;;;;;;
2022/10/18 21:06:06;;;;;;;;;;;;;;;;;;;;;
2022/10/18 21:09:11;;;;;;;10.90;6.97;;;13.40;99.90;;;;;;6236615;23;20449;-88
2022/10/18 21:15:50;;;;;;;;;;;;;;;;;;;;;
2022/10/18 21:21:30;;;;;;;13.07;7.20;;;13.20;1.00;;;;;;6228822;23;20372;-88
2022/10/18 21:24:00;;;;;;;18.73;6.50;;;13.20;1.00;;;;;;6231711;23;20428;-89
2022/10/18 21:26:28;;;;;;;9.63;7.90;;;13.20;1.00;;;;;;6246522;23;20401;-88
2022/10/18 21:29:09;;;;;;;11.90;7.17;;;13.10;1.00;;;;;;6218662;23;20407;-88
2022/10/18 21:31:41;;;;;;;10.70;6.90;;;13.10;1.00;;;;;;6220187;23;20379;-89
2022/10/18 21:34:16;;;;;;;9.70;5.70;;;13.10;1.00;;;;;;6246142;23;20360;-89
2022/10/18 21:40:43;;;;;;;12.17;6.70;;;13.00;99.90;;;;;;6229890;22;20417;-88
2022/10/18 21:47:15;;;;;;;15.13;6.93;;;12.80;1.00;;;;;;6231547;23;20414;-89
2022/10/18 21:52:59;;;;;;;13.50;6.63;;;12.70;58.10;;;;;;6223734;23;20728;-88
2022/10/18 21:55:57;;;;;;;;;;;;;;;;;;;;;
2022/10/18 21:58:59;;;;;;;13.77;6.30;;;12.70;26.80;;;;;;6245292;23;20428;-89
2022/10/18 22:24:58;;;;;;;;;;;;;;;;;;;;;
2022/10/18 22:31:02;;;;;;;;;;;;;;;;;;;;;
2022/10/18 22:33:37;;;;;;;14.30;6.63;;;12.40;1.00;;;;;;6249150;23;20395;-88
2022/10/18 22:36:05;;;;;;;16.33;7.50;;;12.40;1.00;;;;;;6243957;23;20395;-88
2022/10/18 22:38:45;;;;;;;;;;;;;;;;;;;;;
2022/10/18 22:45:26;;;;;;;13.67;6.57;;;12.40;1.00;;;;;;6228376;23;20388;-87
2022/10/18 23:04:54;;;;;;;11.77;6.00;;;12.10;99.90;;;;;;6209501;23;20534;-87
2022/10/18 23:14:39;;;;;;;16.13;6.57;;;12.00;99.90;;;;;;6219542;23;20498;-87
2022/10/18 23:20:49;;;;;;;13.33;5.70;;;12.00;99.90;;;;;;6219478;22;20401;-88
2022/10/18 23:37:06;;;;;;;11.93;6.87;;;11.80;1.00;;;;;;6219227;23;20380;-88
2022/10/18 23:53:07;;;;;;;;;;;;;;;;;;;;;
2022/10/18 23:56:09;;;;;;;15.10;6.33;;;11.60;1.00;;;;;;6236543;23;20945;-88
